createdAt,value
2022-12-18T00:02:11.570Z,75.12
2022-12-18T00:04:38.249Z,75.29
2022-12-18T00:07:05.009Z,75.73
2022-12-18T00:09:39.628Z,75.53
2022-12-18T00:14:43.081Z,76.00
2022-12-18T00:17:10.034Z,75.87
2022-12-18T00:19:36.805Z,76.01
2022-12-18T00:22:03.667Z,75.55
2022-12-18T00:24:30.390Z,75.12
2022-12-18T00:26:56.982Z,75.51
2022-12-18T00:29:23.534Z,75.40
2022-12-18T00:31:50.273Z,75.19
2022-12-18T00:34:17.247Z,75.39
2022-12-18T00:36:43.785Z,74.91
2022-12-18T00:39:13.226Z,74.71
2022-12-18T00:41:58.766Z,74.61
2022-12-18T00:44:25.864Z,74.45
2022-12-18T00:46:52.497Z,74.30
2022-12-18T00:49:20.983Z,74.13
2022-12-18T00:51:48.691Z,74.45
2022-12-18T00:54:15.726Z,75.05
2022-12-18T00:56:50.086Z,74.68
2022-12-18T00:59:20.624Z,73.85
2022-12-18T01:01:47.865Z,73.96
2022-12-18T01:04:14.926Z,74.36
2022-12-18T01:06:41.613Z,74.45
2022-12-18T01:09:08.196Z,74.03
2022-12-18T01:11:36.974Z,73.81
2022-12-18T01:14:05.076Z,73.95
2022-12-18T01:16:31.698Z,73.49
2022-12-18T01:18:58.307Z,73.42
2022-12-18T01:21:27.871Z,72.92
2022-12-18T01:23:56.008Z,73.15
2022-12-18T01:26:24.920Z,73.68
2022-12-18T01:28:51.773Z,73.66
2022-12-18T01:31:25.187Z,73.88
2022-12-18T01:33:53.393Z,73.17
2022-12-18T01:36:23.238Z,73.38
2022-12-18T01:38:51.119Z,73.68
2022-12-18T01:41:22.883Z,72.90
2022-12-18T01:43:55.334Z,73.16
2022-12-18T01:46:24.000Z,72.55
2022-12-18T01:48:54.404Z,73.48
2022-12-18T01:51:21.569Z,73.68
2022-12-18T01:53:49.108Z,72.47
2022-12-18T01:56:18.616Z,73.81
2022-12-18T01:59:03.649Z,73.02
2022-12-18T02:01:32.318Z,73.22
2022-12-18T02:04:24.445Z,73.59
2022-12-18T02:07:02.790Z,73.25
2022-12-18T02:09:36.443Z,73.10
2022-12-18T02:12:14.227Z,73.30
2022-12-18T02:15:10.763Z,72.83
2022-12-18T02:17:48.704Z,73.15
2022-12-18T02:20:24.907Z,72.15
2022-12-18T02:23:10.418Z,72.32
2022-12-18T02:25:55.957Z,71.81
2022-12-18T02:28:26.853Z,71.75
2022-12-18T02:30:58.794Z,72.21
2022-12-18T02:33:28.239Z,73.46
2022-12-18T02:35:57.128Z,72.52
2022-12-18T02:38:26.421Z,72.40
2022-12-18T02:40:55.738Z,73.07
2022-12-18T02:43:22.750Z,72.52
2022-12-18T02:45:55.902Z,72.89
2022-12-18T02:48:31.345Z,72.16
2022-12-18T02:51:30.093Z,71.72
2022-12-18T02:54:18.083Z,72.34
2022-12-18T02:56:55.257Z,71.85
2022-12-18T02:59:39.813Z,71.25
2022-12-18T03:02:27.830Z,71.72
2022-12-18T03:05:08.236Z,71.59
2022-12-18T03:07:41.469Z,71.38
2022-12-18T03:10:15.031Z,71.38
2022-12-18T03:12:49.074Z,71.05
2022-12-18T03:15:25.104Z,71.18
2022-12-18T03:18:05.643Z,70.85
2022-12-18T03:20:35.185Z,71.42
2022-12-18T03:23:12.493Z,71.72
2022-12-18T03:25:42.958Z,71.50
2022-12-18T03:28:13.127Z,71.75
2022-12-18T03:30:42.552Z,71.42
2022-12-18T03:33:14.361Z,71.23
2022-12-18T03:35:45.379Z,71.44
2022-12-18T03:38:13.833Z,71.66
2022-12-18T03:41:16.980Z,72.05
2022-12-18T03:44:19.856Z,71.02
2022-12-18T03:47:06.112Z,71.17
2022-12-18T03:49:51.566Z,71.85
2022-12-18T03:52:28.270Z,71.71
2022-12-18T03:54:57.783Z,71.60
2022-12-18T03:57:28.952Z,71.20
2022-12-18T04:00:00.971Z,70.71
2022-12-18T04:02:45.613Z,71.79
2022-12-18T04:05:16.777Z,71.82
2022-12-18T04:07:47.148Z,71.51
2022-12-18T04:10:16.529Z,71.35
2022-12-18T04:12:43.736Z,71.85
2022-12-18T04:15:13.877Z,71.63
2022-12-18T04:17:48.850Z,71.92
2022-12-18T04:20:18.200Z,71.71
2022-12-18T04:22:45.696Z,71.96
2022-12-18T04:25:14.265Z,70.95
2022-12-18T04:27:52.994Z,71.74
2022-12-18T04:30:19.710Z,71.66
2022-12-18T04:32:51.876Z,71.20
2022-12-18T04:35:19.883Z,71.40
2022-12-18T04:37:47.339Z,72.39
2022-12-18T04:40:15.411Z,72.58
2022-12-18T04:42:45.596Z,72.98
2022-12-18T04:45:12.395Z,72.49
2022-12-18T04:47:39.082Z,72.73
2022-12-18T04:50:06.609Z,72.61
2022-12-18T04:52:33.272Z,73.23
2022-12-18T04:54:59.906Z,71.78
2022-12-18T04:57:27.098Z,72.81
2022-12-18T04:59:53.809Z,73.16
2022-12-18T05:02:20.508Z,72.75
2022-12-18T05:04:47.364Z,72.18
2022-12-18T05:07:14.038Z,72.43
2022-12-18T05:09:40.829Z,72.25
2022-12-18T05:12:08.723Z,72.60
2022-12-18T05:14:38.649Z,71.88
2022-12-18T05:17:05.548Z,72.44
2022-12-18T05:19:32.516Z,72.05
2022-12-18T05:21:59.277Z,72.18
2022-12-18T05:24:26.262Z,72.84
2022-12-18T05:26:53.106Z,72.46
2022-12-18T05:29:19.871Z,72.16
2022-12-18T05:31:46.602Z,72.87
2022-12-18T05:34:13.436Z,71.63
2022-12-18T05:36:40.482Z,71.58
2022-12-18T05:39:07.653Z,72.32
2022-12-18T05:41:34.752Z,72.42
2022-12-18T05:44:01.428Z,71.42
2022-12-18T05:46:28.296Z,71.53
2022-12-18T05:48:55.086Z,71.27
2022-12-18T05:51:23.014Z,71.63
2022-12-18T05:53:49.877Z,71.53
2022-12-18T05:56:19.786Z,71.22
2022-12-18T05:58:47.353Z,71.61
2022-12-18T06:01:27.326Z,71.21
2022-12-18T06:03:54.704Z,71.46
2022-12-18T06:06:24.457Z,72.07
2022-12-18T06:08:51.830Z,71.28
2022-12-18T06:11:21.288Z,72.28
2022-12-18T06:13:54.770Z,71.48
2022-12-18T06:16:25.031Z,71.78
2022-12-18T06:18:51.862Z,71.91
2022-12-18T06:21:18.576Z,72.23
2022-12-18T06:23:45.329Z,72.20
2022-12-18T06:26:13.764Z,72.42
2022-12-18T06:28:41.070Z,72.04
2022-12-18T06:31:15.688Z,71.63
2022-12-18T06:33:45.846Z,72.46
2022-12-18T06:36:14.257Z,72.03
2022-12-18T06:38:44.583Z,71.83
2022-12-18T06:41:20.325Z,72.21
2022-12-18T06:43:48.233Z,72.45
2022-12-18T06:46:15.217Z,71.79
2022-12-18T06:48:42.252Z,71.95
2022-12-18T06:51:09.301Z,71.84
2022-12-18T06:53:36.071Z,71.77
2022-12-18T06:56:10.263Z,72.33
2022-12-18T06:58:38.739Z,71.90
2022-12-18T07:01:08.081Z,71.88
2022-12-18T07:03:35.798Z,71.25
2022-12-18T07:06:02.718Z,70.98
2022-12-18T07:08:30.979Z,70.58
2022-12-18T07:10:57.983Z,70.80
2022-12-18T07:13:24.768Z,71.46
2022-12-18T07:15:51.693Z,70.99
2022-12-18T07:18:18.371Z,70.68
2022-12-18T07:20:45.185Z,70.24
2022-12-18T07:23:12.763Z,70.95
2022-12-18T07:25:40.442Z,70.56
2022-12-18T07:28:08.859Z,69.69
2022-12-18T07:30:39.379Z,69.89
2022-12-18T07:33:06.085Z,69.74
2022-12-18T07:35:34.117Z,70.67
2022-12-18T07:38:00.849Z,70.25
2022-12-18T07:40:28.378Z,70.89
2022-12-18T07:42:55.417Z,71.87
2022-12-18T07:45:22.166Z,71.03
2022-12-18T07:47:48.880Z,70.97
2022-12-18T07:50:16.178Z,70.53
2022-12-18T07:52:43.338Z,71.34
2022-12-18T07:55:10.122Z,70.42
2022-12-18T07:57:56.408Z,70.67
2022-12-18T08:00:24.041Z,69.94
2022-12-18T08:02:50.836Z,69.97
2022-12-18T08:05:18.252Z,70.48
2022-12-18T08:07:45.089Z,69.89
2022-12-18T08:10:12.015Z,69.34
2022-12-18T08:12:40.515Z,69.06
2022-12-18T08:15:08.242Z,68.49
2022-12-18T08:17:35.025Z,68.39
2022-12-18T08:20:02.333Z,68.09
2022-12-18T08:22:29.040Z,67.58
2022-12-18T08:24:55.892Z,67.40
2022-12-18T08:27:30.451Z,67.54
2022-12-18T08:29:58.324Z,66.73
2022-12-18T08:32:26.696Z,66.22
2022-12-18T08:34:53.597Z,65.52
2022-12-18T08:37:20.569Z,65.42
2022-12-18T08:39:47.252Z,64.38
2022-12-18T08:42:32.935Z,64.91
2022-12-18T08:44:59.751Z,64.28
2022-12-18T08:47:27.145Z,64.53
2022-12-18T08:49:54.031Z,64.89
2022-12-18T08:52:20.979Z,63.42
2022-12-18T08:54:47.950Z,65.10
2022-12-18T08:57:14.875Z,63.25
2022-12-18T08:59:42.244Z,62.63
2022-12-18T09:02:13.175Z,63.61
2022-12-18T09:04:40.897Z,63.65
2022-12-18T09:07:07.761Z,63.79
2022-12-18T09:09:34.423Z,63.49
2022-12-18T09:12:01.270Z,63.43
2022-12-18T09:14:28.061Z,63.38
2022-12-18T09:16:54.838Z,62.63
2022-12-18T09:19:22.323Z,63.25
2022-12-18T09:21:49.378Z,62.51
2022-12-18T09:24:17.027Z,63.99
2022-12-18T09:26:46.897Z,63.28
2022-12-18T09:29:18.853Z,63.34
2022-12-18T09:31:46.426Z,63.08
2022-12-18T09:34:13.677Z,63.36
2022-12-18T09:36:40.742Z,61.62
2022-12-18T09:39:08.998Z,62.08
2022-12-18T09:41:42.448Z,62.67
2022-12-18T09:47:44.143Z,62.04
2022-12-18T09:50:35.159Z,61.51
2022-12-18T09:53:17.042Z,61.30
2022-12-18T09:55:47.571Z,62.28
2022-12-18T09:58:17.498Z,66.14
2022-12-18T10:00:44.604Z,67.39
2022-12-18T10:03:16.355Z,68.46
2022-12-18T10:05:52.427Z,68.81
2022-12-18T10:08:37.954Z,68.49
2022-12-18T10:11:23.072Z,67.89
2022-12-18T10:14:10.844Z,66.13
2022-12-18T10:16:54.274Z,65.19
2022-12-18T10:19:59.604Z,64.22
2022-12-18T10:22:31.931Z,63.90
2022-12-18T10:25:38.160Z,62.93
2022-12-18T10:28:14.383Z,63.40
2022-12-18T10:30:43.272Z,62.71
2022-12-18T10:33:15.067Z,62.99
2022-12-18T10:35:43.274Z,62.34
2022-12-18T10:38:13.578Z,62.51
2022-12-18T10:40:53.017Z,62.12
2022-12-18T10:43:36.063Z,62.02
2022-12-18T10:46:09.100Z,62.16
2022-12-18T10:48:47.943Z,62.08
2022-12-18T10:51:34.890Z,61.79
2022-12-18T10:54:23.511Z,61.54
2022-12-18T10:56:50.581Z,61.78
2022-12-18T10:59:19.055Z,62.17
2022-12-18T11:01:59.323Z,61.44
2022-12-18T11:04:26.087Z,61.79
2022-12-18T11:07:06.787Z,61.21
2022-12-18T11:09:38.545Z,61.29
2022-12-18T11:12:16.062Z,60.60
2022-12-18T11:14:47.700Z,60.86
2022-12-18T11:17:26.720Z,60.48
2022-12-18T11:20:02.434Z,60.50
2022-12-18T11:22:32.724Z,59.54
2022-12-18T11:27:53.891Z,59.71
2022-12-18T11:30:26.451Z,60.08
2022-12-18T11:33:18.619Z,59.65
2022-12-18T11:35:48.068Z,60.19
2022-12-18T11:38:24.328Z,60.53
2022-12-18T11:41:00.065Z,60.35
2022-12-18T11:43:36.626Z,61.36
2022-12-18T11:46:20.232Z,60.87
2022-12-18T11:48:55.496Z,60.67
2022-12-18T11:51:30.867Z,60.81
2022-12-18T11:53:57.697Z,61.14
2022-12-18T11:56:33.056Z,61.34
2022-12-18T11:59:27.130Z,61.60
2022-12-18T12:01:59.441Z,61.90
2022-12-18T12:05:01.491Z,61.74
2022-12-18T12:08:07.008Z,63.00
2022-12-18T12:10:43.804Z,62.48
2022-12-18T12:13:26.407Z,62.21
2022-12-18T12:16:25.703Z,62.14
2022-12-18T12:19:12.508Z,63.78
2022-12-18T12:21:43.234Z,62.61
2022-12-18T12:24:20.237Z,63.41
2022-12-18T12:27:01.527Z,63.50
2022-12-18T12:29:34.128Z,62.35
2022-12-18T12:32:23.710Z,63.37
2022-12-18T12:35:15.343Z,62.65
2022-12-18T12:38:08.113Z,63.72
2022-12-18T12:40:53.485Z,63.95
2022-12-18T12:43:49.440Z,64.01
2022-12-18T12:46:22.848Z,63.35
2022-12-18T12:48:55.422Z,63.89
2022-12-18T12:51:26.652Z,63.28
2022-12-18T12:53:55.535Z,62.89
2022-12-18T12:56:24.393Z,63.45
2022-12-18T12:59:06.155Z,62.85
2022-12-18T13:02:05.584Z,63.08
2022-12-18T13:05:11.006Z,63.64
2022-12-18T13:07:51.178Z,63.23
2022-12-18T13:10:19.034Z,62.98
2022-12-18T13:13:03.960Z,62.71
2022-12-18T13:15:38.580Z,63.22
2022-12-18T13:18:15.580Z,63.03
2022-12-18T13:20:52.455Z,63.21
2022-12-18T13:23:25.232Z,64.09
2022-12-18T13:25:59.825Z,63.98
2022-12-18T13:28:48.230Z,63.63
2022-12-18T13:31:31.003Z,64.11
2022-12-18T13:34:28.288Z,64.03
2022-12-18T13:37:15.570Z,63.66
2022-12-18T13:39:43.009Z,64.45
2022-12-18T13:42:09.576Z,65.33
2022-12-18T13:44:41.808Z,64.86
2022-12-18T13:47:32.065Z,65.49
2022-12-18T13:49:59.529Z,65.44
2022-12-18T13:52:29.411Z,65.17
2022-12-18T13:54:59.955Z,65.63
2022-12-18T13:57:26.475Z,66.03
2022-12-18T13:59:53.347Z,65.59
2022-12-18T14:02:28.652Z,65.66
2022-12-18T14:04:56.440Z,65.57
2022-12-18T14:07:31.474Z,65.29
2022-12-18T14:10:44.321Z,66.26
2022-12-18T14:13:10.553Z,65.66
2022-12-18T14:15:47.023Z,66.32
2022-12-18T14:18:43.713Z,66.20
2022-12-18T14:21:33.461Z,66.12
2022-12-18T14:24:16.754Z,66.28
2022-12-18T14:26:48.322Z,66.16
2022-12-18T14:29:24.330Z,66.37
2022-12-18T14:32:18.756Z,66.51
2022-12-18T14:34:56.955Z,66.22
2022-12-18T14:37:28.392Z,65.92
2022-12-18T14:40:10.422Z,66.44
2022-12-18T14:42:38.329Z,66.10
2022-12-18T14:45:41.644Z,66.76
2022-12-18T14:48:19.092Z,66.52
2022-12-18T14:51:03.491Z,66.82
2022-12-18T14:53:35.074Z,66.52
2022-12-18T14:56:02.582Z,66.87
2022-12-18T14:58:29.657Z,66.82
2022-12-18T15:00:56.436Z,67.01
2022-12-18T15:03:24.227Z,67.04
2022-12-18T15:05:53.394Z,66.93
2022-12-18T15:08:32.133Z,67.03
2022-12-18T15:11:00.816Z,66.92
2022-12-18T15:13:29.001Z,67.18
2022-12-18T15:16:02.559Z,67.35
2022-12-18T15:18:36.589Z,67.60
2022-12-18T15:21:18.712Z,67.71
2022-12-18T15:23:46.276Z,67.20
2022-12-18T15:26:15.891Z,67.84
2022-12-18T15:28:57.493Z,67.75
2022-12-18T15:31:39.106Z,67.29
2022-12-18T15:34:09.572Z,67.67
2022-12-18T15:36:37.760Z,67.39
2022-12-18T15:39:06.627Z,68.13
2022-12-18T15:41:36.370Z,67.09
2022-12-18T15:44:04.999Z,67.62
2022-12-18T15:46:32.498Z,67.83
2022-12-18T15:49:02.642Z,67.73
2022-12-18T15:51:38.686Z,67.80
2022-12-18T15:54:14.184Z,68.23
2022-12-18T15:56:59.791Z,68.53
2022-12-18T15:59:27.469Z,68.02
2022-12-18T16:01:55.287Z,68.31
2022-12-18T16:04:23.551Z,68.55
2022-12-18T16:09:41.390Z,68.16
2022-12-18T16:12:19.455Z,67.79
2022-12-18T16:14:47.579Z,68.21
2022-12-18T16:17:16.427Z,68.06
2022-12-18T16:19:44.340Z,67.95
2022-12-18T16:22:31.492Z,68.03
2022-12-18T16:24:59.315Z,68.25
2022-12-18T16:27:27.443Z,68.50
2022-12-18T16:29:55.158Z,68.37
2022-12-18T16:32:23.526Z,68.40
2022-12-18T16:35:00.897Z,68.24
2022-12-18T16:37:29.884Z,68.60
2022-12-18T16:39:59.229Z,67.75
2022-12-18T16:42:28.374Z,67.77
2022-12-18T16:44:56.497Z,68.72
2022-12-18T16:47:25.786Z,68.48
2022-12-18T16:49:53.897Z,68.83
2022-12-18T16:52:24.350Z,68.67
2022-12-18T16:54:51.979Z,68.63
2022-12-18T16:57:24.663Z,68.34
2022-12-18T16:59:53.535Z,69.24
2022-12-18T17:02:28.205Z,68.77
2022-12-18T17:05:00.837Z,69.41
2022-12-18T17:07:29.178Z,70.24
2022-12-18T17:09:58.947Z,69.85
2022-12-18T17:12:27.446Z,70.14
2022-12-18T17:14:56.498Z,70.60
2022-12-18T17:17:24.337Z,71.16
2022-12-18T17:19:53.041Z,70.93
2022-12-18T17:22:23.370Z,71.00
2022-12-18T17:24:50.822Z,70.59
2022-12-18T17:27:18.384Z,70.51
2022-12-18T17:29:48.234Z,70.82
2022-12-18T17:32:18.004Z,70.84
2022-12-18T17:34:46.360Z,70.53
2022-12-18T17:37:14.716Z,70.84
2022-12-18T17:39:42.415Z,70.72
2022-12-18T17:42:14.832Z,70.73
2022-12-18T17:44:45.412Z,70.64
2022-12-18T17:47:16.642Z,71.15
2022-12-18T17:49:44.991Z,70.84
2022-12-18T17:52:13.436Z,70.56
2022-12-18T17:54:42.484Z,70.70
2022-12-18T17:57:11.259Z,70.78
2022-12-18T17:59:39.308Z,71.56
2022-12-18T18:02:07.099Z,71.09
2022-12-18T18:04:34.725Z,71.25
2022-12-18T18:07:02.051Z,70.56
2022-12-18T18:09:29.080Z,71.81
2022-12-18T18:12:15.240Z,71.22
2022-12-18T18:14:42.560Z,71.75
2022-12-18T18:17:09.967Z,71.27
2022-12-18T18:19:36.969Z,70.95
2022-12-18T18:22:06.256Z,71.02
2022-12-18T18:24:33.807Z,70.97
2022-12-18T18:27:01.894Z,71.13
2022-12-18T18:29:32.932Z,71.66
2022-12-18T18:32:00.292Z,71.18
2022-12-18T18:34:30.308Z,71.08
2022-12-18T18:36:57.362Z,70.73
2022-12-18T18:39:24.415Z,69.99
2022-12-18T18:41:51.707Z,70.58
2022-12-18T18:44:24.807Z,70.73
2022-12-18T18:46:57.748Z,70.26
2022-12-18T18:49:28.395Z,69.98
2022-12-18T18:51:57.350Z,69.91
2022-12-18T18:54:26.219Z,69.58
2022-12-18T18:57:19.302Z,69.41
2022-12-18T18:59:41.083Z,69.61
2022-12-18T19:02:16.101Z,69.73
2022-12-18T19:04:46.242Z,69.69
2022-12-18T19:07:18.489Z,69.34
2022-12-18T19:09:57.487Z,69.51
2022-12-18T19:12:45.742Z,69.62
2022-12-18T19:15:16.834Z,69.86
2022-12-18T19:17:47.861Z,69.64
2022-12-18T19:20:18.121Z,69.42
2022-12-18T19:22:54.822Z,69.22
2022-12-18T19:25:30.674Z,69.27
2022-12-18T19:28:12.034Z,69.25
2022-12-18T19:30:50.033Z,68.90
2022-12-18T19:33:41.575Z,69.35
2022-12-18T19:36:29.154Z,69.66
2022-12-18T19:39:00.743Z,69.61
2022-12-18T19:41:32.049Z,69.90
2022-12-18T19:44:07.359Z,69.65
2022-12-18T19:46:36.024Z,69.14
2022-12-18T19:49:04.473Z,69.51
2022-12-18T19:51:32.793Z,69.59
2022-12-18T19:54:02.704Z,70.42
2022-12-18T19:56:32.835Z,69.88
2022-12-18T19:59:00.449Z,70.08
2022-12-18T20:01:28.659Z,69.64
2022-12-18T20:03:57.580Z,70.14
2022-12-18T20:06:30.257Z,69.95
2022-12-18T20:09:01.054Z,69.90
2022-12-18T20:11:30.141Z,70.47
2022-12-18T20:13:57.992Z,70.91
2022-12-18T20:16:28.332Z,70.29
2022-12-18T20:19:00.747Z,70.27
2022-12-18T20:21:28.547Z,70.31
2022-12-18T20:24:00.164Z,70.59
2022-12-18T20:26:27.902Z,70.79
2022-12-18T20:28:55.653Z,70.96
2022-12-18T20:31:23.852Z,71.00
2022-12-18T20:33:53.313Z,70.93
2022-12-18T20:36:23.394Z,71.32
2022-12-18T20:38:56.370Z,71.32
2022-12-18T20:41:28.177Z,71.51
2022-12-18T20:44:05.839Z,71.66
2022-12-18T20:46:35.451Z,72.13
2022-12-18T20:49:03.513Z,71.86
2022-12-18T20:51:31.704Z,71.63
2022-12-18T20:53:59.752Z,71.80
2022-12-18T20:56:27.454Z,71.35
2022-12-18T20:58:57.067Z,71.60
2022-12-18T21:01:25.384Z,72.02
2022-12-18T21:03:54.308Z,71.52
2022-12-18T21:06:23.185Z,72.64
2022-12-18T21:08:50.653Z,72.18
2022-12-18T21:11:38.953Z,72.23
2022-12-18T21:14:23.922Z,73.41
2022-12-18T21:16:51.821Z,72.93
2022-12-18T21:19:23.117Z,73.49
2022-12-18T21:21:50.758Z,73.70
2022-12-18T21:24:18.252Z,73.63
2022-12-18T21:26:47.360Z,72.20
2022-12-18T21:29:20.228Z,72.10
2022-12-18T21:31:47.995Z,72.48
2022-12-18T21:34:21.719Z,72.37
2022-12-18T21:36:49.572Z,71.88
2022-12-18T21:39:17.438Z,72.56
2022-12-18T21:42:03.501Z,71.95
2022-12-18T21:44:31.004Z,72.24
2022-12-18T21:47:15.273Z,71.12
2022-12-18T21:49:48.614Z,72.26
2022-12-18T21:52:15.602Z,70.83
2022-12-18T21:54:42.531Z,71.05
2022-12-18T21:57:13.325Z,71.25
2022-12-18T21:59:42.592Z,71.86
2022-12-18T22:02:16.793Z,72.34
2022-12-18T22:04:45.100Z,71.84
2022-12-18T22:07:13.610Z,72.03
2022-12-18T22:09:41.136Z,71.36
2022-12-18T22:12:09.050Z,72.25
2022-12-18T22:14:36.161Z,72.49
2022-12-18T22:17:03.110Z,72.47
2022-12-18T22:19:30.888Z,71.65
2022-12-18T22:21:57.879Z,71.95
2022-12-18T22:24:26.663Z,71.69
2022-12-18T22:27:01.951Z,72.59
2022-12-18T22:29:48.412Z,72.07
2022-12-18T22:32:22.240Z,71.49
2022-12-18T22:35:05.255Z,72.49
2022-12-18T22:37:34.098Z,71.31
2022-12-18T22:40:03.301Z,72.25
2022-12-18T22:42:31.599Z,72.43
2022-12-18T22:44:58.529Z,72.17
2022-12-18T22:47:29.731Z,72.94
2022-12-18T22:49:57.348Z,72.58
2022-12-18T22:52:25.058Z,73.70
2022-12-18T22:54:53.144Z,72.97
2022-12-18T22:57:24.306Z,72.69
2022-12-18T22:59:51.718Z,74.12
2022-12-18T23:02:19.687Z,74.11
2022-12-18T23:04:47.735Z,73.54
2022-12-18T23:07:15.506Z,74.11
2022-12-18T23:09:42.585Z,73.56
2022-12-18T23:12:15.017Z,74.96
2022-12-18T23:14:42.048Z,74.28
2022-12-18T23:17:09.127Z,75.40
2022-12-18T23:19:37.488Z,74.41
2022-12-18T23:22:08.664Z,75.08
2022-12-18T23:24:38.577Z,75.06
2022-12-18T23:27:05.741Z,75.82
2022-12-18T23:29:36.367Z,75.26
2022-12-18T23:32:03.363Z,74.36
2022-12-18T23:34:30.325Z,75.08
2022-12-18T23:36:58.085Z,73.92
2022-12-18T23:39:29.705Z,74.90
2022-12-18T23:42:00.921Z,74.42
2022-12-18T23:44:28.432Z,74.40
2022-12-18T23:46:55.856Z,75.20
2022-12-18T23:49:23.125Z,74.14
2022-12-18T23:51:50.386Z,74.56
2022-12-18T23:54:17.424Z,74.36
2022-12-18T23:56:52.308Z,74.38
2022-12-18T23:59:22.640Z,73.71
